»·PEaware :: BADGR12 KEND-KEND

BADGR12 :: KEND-KEND

FLIGHT INFORMATION

Flight Status: Arrived
Operator: Unknown
More flights by this operator :: More flights under this callsign
Pilot: Travis W. (22217)
Aircraft: BEECH AIRCRAFT T-6A TEXAN
(TEX2)
More flights by this aircraft type
Origin: KEND Vance AFB
United States
Destination: KEND Vance AFB
United States
More flights between these airports :: More routes between these airports
Route: AVK END9
File this flight plan on PilotEdge
Remarks:
Altitude:
(Current/Filed)
null
Speed:
(Current/Filed)
0kts
Departed: 05-Apr-21 11:39 AM
Arrived: 05-Apr-21 12:23 PM
Distance/Time
Traveled:
0nm/0:44
Distance/Time
To Go:
Arrived

Flight Plot

Page will automatically refresh every two minutes.

Flight plan parsing failed; only flown route is shown


Map Options




Map Legend


Flown Route
Filed Route
Departure Airport
Arrival Airport
Navaid (VOR, NDB)
Fix

Horizontal Profiles

Position Reports

Time Latitude Longitude Heading Altitude Ground
Speed
05-Apr-21 11:30 36.333430 -97.910261 270 1291ft 0kts
05-Apr-21 11:31 36.333430 -97.910261 270 1291ft 0kts
05-Apr-21 11:32 36.333430 -97.910261 270 1291ft 0kts
05-Apr-21 11:33 36.333430 -97.910261 270 1291ft 0kts
05-Apr-21 11:34 36.333430 -97.910261 270 1291ft 0kts
05-Apr-21 11:35 36.333430 -97.910261 270 1291ft 0kts
05-Apr-21 11:36 36.333430 -97.910261 270 1291ft 0kts
05-Apr-21 11:37 36.333430 -97.910261 270 1291ft 0kts
05-Apr-21 11:38 36.333422 -97.910400 262 1291ft 5kts
05-Apr-21 11:39 36.349690 -97.910008 2 1706ft 151kts
05-Apr-21 11:40 36.403254 -97.899899 4 3512ft 199kts
05-Apr-21 11:41 36.460331 -97.887398 2 5192ft 250kts
05-Apr-21 11:41 36.514972 -97.900922 352 4960ft 229kts
05-Apr-21 11:43 36.578291 -97.894786 5 5949ft 197kts
05-Apr-21 11:44 36.612890 -97.934076 282 5906ft 191kts
05-Apr-21 11:44 36.627976 -97.985160 294 6014ft 192kts
05-Apr-21 11:46 36.657924 -98.064189 294 6132ft 244kts
05-Apr-21 11:46 36.679878 -98.128713 284 4917ft 232kts
05-Apr-21 11:47 36.694714 -98.203257 286 3947ft 216kts
05-Apr-21 11:48 36.716197 -98.268963 284 3660ft 196kts
05-Apr-21 11:50 36.730145 -98.351094 281 4391ft 241kts
05-Apr-21 11:50 36.742607 -98.416745 283 4078ft 218kts
05-Apr-21 11:51 36.749902 -98.492458 277 4144ft 222kts
05-Apr-21 11:52 36.760728 -98.569737 282 4181ft 229kts
05-Apr-21 11:53 36.773520 -98.649635 276 4012ft 236kts
05-Apr-21 11:54 36.779502 -98.720903 331 4159ft 178kts
05-Apr-21 11:55 36.759975 -98.690114 174 3065ft 134kts
05-Apr-21 11:56 36.769750 -98.670447 353 1507ft 115kts
05-Apr-21 11:57 36.772838 -98.690617 180 3049ft 128kts
05-Apr-21 11:58 36.753153 -98.673630 26 1831ft 121kts
05-Apr-21 11:59 36.784388 -98.670072 356 2051ft 152kts
05-Apr-21 12:00 36.812097 -98.629036 80 4493ft 205kts
05-Apr-21 12:01 36.817280 -98.543733 108 5226ft 256kts
05-Apr-21 12:02 36.805231 -98.457772 99 5648ft 253kts
05-Apr-21 12:03 36.794420 -98.372222 102 6085ft 248kts
05-Apr-21 12:04 36.769006 -98.289121 118 6248ft 273kts
05-Apr-21 12:05 36.735454 -98.205028 117 5954ft 261kts
05-Apr-21 12:06 36.714330 -98.120427 107 5990ft 255kts
05-Apr-21 12:07 36.715555 -98.035253 65 5942ft 259kts
05-Apr-21 12:08 36.744221 -97.953509 66 6074ft 257kts
05-Apr-21 12:09 36.717454 -97.879069 134 6049ft 255kts
05-Apr-21 12:10 36.666892 -97.814909 148 6081ft 264kts
05-Apr-21 12:11 36.598190 -97.799795 181 6462ft 251kts
05-Apr-21 12:12 36.528012 -97.792684 178 5803ft 247kts
05-Apr-21 12:13 36.460712 -97.787085 179 6059ft 247kts
05-Apr-21 12:14 36.391565 -97.786301 183 5940ft 254kts
05-Apr-21 12:15 36.323159 -97.788135 190 5222ft 242kts
05-Apr-21 12:16 36.258932 -97.800204 199 5268ft 235kts
05-Apr-21 12:17 36.208436 -97.844333 245 2970ft 204kts
05-Apr-21 12:18 36.218934 -97.904704 346 2317ft 207kts
05-Apr-21 12:19 36.276766 -97.908951 351 2330ft 208kts
05-Apr-21 12:20 36.333409 -97.911076 6 2238ft 190kts
05-Apr-21 12:21 36.324497 -97.908050 301 1561ft 105kts
05-Apr-21 12:22 36.339563 -97.910920 0 1286ft 20kts
05-Apr-21 12:23 36.340925 -97.909274 135 1285ft 0kts

Navigation Log

Ident Type
Flight plan parsing failed, navigation log unavailable